Time;durP1;ratioP1;P1;durP2;ratioP2;P2;SDS_P1;SDS_P2;PMS_P1;PMS_P2;Temp;Humidity;BMP_temperature;BMP_pressure;BME280_temperature;BME280_humidity;BME280_pressure;Samples;Min_cycle;Max_cycle;Signal;HPM_P1;HPM_P2
2022/05/27 00:01:47;;;;;;;3.80;1.57;;;;;15.00;101699.00;;;;10035870;29;20221;-78
2022/05/27 00:06:49;;;;;;;7.13;1.53;;;;;15.00;101698.00;;;;10022975;29;20544;-78
2022/05/27 00:11:51;;;;;;;4.03;1.40;;;;;15.00;101687.00;;;;10022503;29;20220;-78
2022/05/27 00:16:53;;;;;;;5.47;1.53;;;;;15.00;101689.00;;;;10021246;29;20252;-78
2022/05/27 00:21:56;;;;;;;5.40;1.50;;;;;15.00;101682.00;;;;10020337;29;20212;-78
2022/05/27 00:27:00;;;;;;;5.00;1.67;;;;;15.00;101677.00;;;;10027642;29;20208;-78
2022/05/27 00:32:05;;;;;;;6.70;1.67;;;;;15.00;101677.00;;;;10018366;29;20267;-79
2022/05/27 00:37:07;;;;;;;5.97;2.00;;;;;15.00;101672.00;;;;10021894;29;20211;-78
2022/05/27 00:42:09;;;;;;;4.37;1.60;;;;;15.00;101672.00;;;;10031364;29;20674;-77
2022/05/27 00:47:16;;;;;;;6.53;2.63;;;;;15.00;101673.00;;;;10016640;29;20217;-78
2022/05/27 00:52:21;;;;;;;4.90;1.70;;;;;15.00;101666.00;;;;10005208;29;20304;-78
2022/05/27 00:57:31;;;;;;;4.30;2.07;;;;;15.00;101666.00;;;;10008877;29;20201;-76
2022/05/27 01:02:36;;;;;;;5.40;2.47;;;;;15.00;101658.00;;;;10025906;29;20267;-76
2022/05/27 01:07:38;;;;;;;5.23;1.63;;;;;15.00;101660.00;;;;9990275;29;20233;-77
2022/05/27 01:13:09;;;;;;;6.63;1.70;;;;;15.00;101650.00;;;;10006176;29;20213;-77
2022/05/27 01:20:18;;;;;;;6.53;2.33;;;;;14.90;101652.00;;;;10029750;29;20251;-76
2022/05/27 01:24:03;;;;;;;8.27;2.00;;;;;14.90;101650.00;;;;10011624;29;20657;-77
2022/05/27 01:29:23;;;;;;;7.37;2.33;;;;;14.90;101636.00;;;;10010314;29;20224;-76
2022/05/27 01:34:35;;;;;;;9.13;2.17;;;;;14.90;101640.00;;;;9988264;29;20615;-77
2022/05/27 01:39:57;;;;;;;9.00;2.67;;;;;14.90;101641.00;;;;10026354;29;20729;-76
2022/05/27 01:45:10;;;;;;;6.83;2.23;;;;;14.80;101640.00;;;;10058338;29;20225;-76
2022/05/27 01:50:47;;;;;;;10.20;2.70;;;;;14.80;101640.00;;;;10025886;29;20212;-77
2022/05/27 01:55:53;;;;;;;9.77;2.93;;;;;14.70;101640.00;;;;10024393;29;20660;-77
2022/05/27 02:00:55;;;;;;;8.07;2.83;;;;;14.70;101644.00;;;;10024480;29;20193;-77
2022/05/27 02:06:00;;;;;;;4.63;2.40;;;;;14.60;101635.00;;;;10040522;29;20331;-77
2022/05/27 02:11:06;;;;;;;10.27;2.77;;;;;14.50;101637.00;;;;10040152;29;20213;-76
2022/05/27 02:16:13;;;;;;;6.70;2.37;;;;;14.40;101640.00;;;;10044970;29;20201;-77
2022/05/27 02:21:23;;;;;;;12.07;2.67;;;;;14.30;101650.00;;;;10040054;29;20193;-77
2022/05/27 02:26:30;;;;;;;10.80;2.97;;;;;14.20;101652.00;;;;10008770;29;20208;-77
2022/05/27 02:31:36;;;;;;;11.87;3.77;;;;;14.10;101649.00;;;;10032634;29;20216;-77
2022/05/27 02:36:59;;;;;;;13.47;3.23;;;;;14.10;101642.00;;;;10024180;29;20284;-77
2022/05/27 02:42:01;;;;;;;13.03;3.43;;;;;14.10;101644.00;;;;10020058;29;20739;-77
2022/05/27 02:47:14;;;;;;;9.73;3.80;;;;;14.20;101637.00;;;;10023367;29;20189;-77
2022/05/27 02:52:44;;;;;;;11.40;3.47;;;;;14.20;101636.00;;;;10008314;29;20562;-77
2022/05/27 02:57:49;;;;;;;13.07;3.77;;;;;14.20;101639.00;;;;10022903;29;20249;-77
2022/05/27 03:02:53;;;;;;;12.10;3.50;;;;;14.20;101638.00;;;;10036982;29;20229;-77
2022/05/27 03:08:06;;;;;;;15.60;3.60;;;;;14.20;101633.00;;;;10023391;29;20199;-77
2022/05/27 03:13:08;;;;;;;14.30;3.33;;;;;14.20;101630.00;;;;10038390;29;20341;-77
2022/05/27 03:18:16;;;;;;;16.03;3.67;;;;;14.20;101618.00;;;;10036776;29;20224;-77
2022/05/27 03:23:36;;;;;;;7.33;2.77;;;;;14.20;101617.00;;;;10008101;29;20581;-77
2022/05/27 03:28:57;;;;;;;9.57;3.00;;;;;14.20;101622.00;;;;10045197;29;20776;-77
2022/05/27 03:34:14;;;;;;;11.93;3.60;;;;;14.20;101615.00;;;;10032087;29;20261;-77
2022/05/27 03:39:29;;;;;;;8.03;3.33;;;;;14.20;101616.00;;;;10045526;29;20192;-77
2022/05/27 03:44:32;;;;;;;12.80;3.57;;;;;14.20;101604.00;;;;9992817;29;20547;-77
2022/05/27 03:49:34;;;;;;;9.20;3.30;;;;;14.30;101621.00;;;;9991622;29;20233;-77
2022/05/27 03:54:36;;;;;;;13.10;3.57;;;;;14.30;101622.00;;;;10030802;29;20223;-77
2022/05/27 03:59:37;;;;;;;13.83;4.00;;;;;14.30;101622.00;;;;10030246;29;20233;-77
2022/05/27 04:04:40;;;;;;;10.83;4.53;;;;;14.20;101620.00;;;;10013613;29;20301;-77
2022/05/27 04:09:42;;;;;;;12.63;4.83;;;;;14.10;101620.00;;;;10029879;29;20252;-77
2022/05/27 04:14:44;;;;;;;16.97;5.17;;;;;14.00;101618.00;;;;10018639;29;20200;-77
2022/05/27 04:19:46;;;;;;;20.93;6.03;;;;;13.90;101617.00;;;;10067911;29;20193;-77
2022/05/27 04:24:48;;;;;;;16.03;5.80;;;;;13.80;101619.00;;;;10031679;29;20205;-77
2022/05/27 04:29:51;;;;;;;17.37;6.23;;;;;13.80;101628.00;;;;10002001;29;20249;-77
2022/05/27 04:34:54;;;;;;;15.30;6.10;;;;;13.80;101628.00;;;;10026677;29;20229;-77
2022/05/27 04:39:56;;;;;;;21.07;6.63;;;;;13.80;101625.00;;;;10025841;29;20201;-77
2022/05/27 04:44:58;;;;;;;16.07;7.00;;;;;13.70;101618.00;;;;9999544;29;20249;-77
2022/05/27 04:50:01;;;;;;;16.80;6.70;;;;;13.70;101626.00;;;;10026047;29;20248;-77
2022/05/27 04:55:09;;;;;;;22.67;7.83;;;;;13.80;101624.00;;;;10005086;29;20801;-77
2022/05/27 05:00:36;;;;;;;16.97;7.77;;;;;13.80;101632.00;;;;10028504;29;20340;-77
2022/05/27 05:05:38;;;;;;;13.50;7.97;;;;;13.80;101631.00;;;;10027006;29;20596;-77
2022/05/27 05:10:40;;;;;;;16.73;8.37;;;;;13.90;101635.00;;;;10027483;29;20220;-77
2022/05/27 05:15:42;;;;;;;16.47;7.57;;;;;13.80;101646.00;;;;10024008;29;20205;-77
2022/05/27 05:20:44;;;;;;;17.40;8.13;;;;;13.90;101638.00;;;;10025988;29;20193;-77
2022/05/27 05:25:46;;;;;;;22.30;8.90;;;;;13.90;101641.00;;;;10027277;29;20331;-76
2022/05/27 05:30:48;;;;;;;15.00;8.53;;;;;13.90;101637.00;;;;10035251;29;20221;-77
2022/05/27 05:35:50;;;;;;;15.07;9.23;;;;;14.00;101644.00;;;;10027891;29;20208;-77
2022/05/27 05:40:52;;;;;;;19.20;9.03;;;;;14.10;101647.00;;;;10026330;29;20201;-77
2022/05/27 05:45:54;;;;;;;14.90;9.13;;;;;14.20;101649.00;;;;10026199;29;20201;-77
2022/05/27 05:50:56;;;;;;;19.77;9.70;;;;;14.30;101649.00;;;;10040856;29;20252;-77
2022/05/27 05:55:59;;;;;;;19.57;9.20;;;;;14.30;101657.00;;;;10020190;29;20232;-77
2022/05/27 06:01:00;;;;;;;18.77;10.83;;;;;14.40;101647.00;;;;9998574;29;20249;-77
2022/05/27 06:06:03;;;;;;;13.93;10.17;;;;;14.60;101646.00;;;;10011592;29;20715;-77
2022/05/27 06:11:07;;;;;;;18.10;10.33;;;;;14.90;101647.00;;;;10024809;29;20242;-77
2022/05/27 06:16:09;;;;;;;19.73;10.50;;;;;15.20;101653.00;;;;10062384;29;20211;-77
2022/05/27 06:21:11;;;;;;;20.60;10.90;;;;;15.40;101660.00;;;;10043450;29;20198;-77
2022/05/27 06:26:13;;;;;;;24.50;11.87;;;;;15.40;101660.00;;;;10027010;29;20634;-77
2022/05/27 06:36:37;;;;;;;19.27;12.03;;;;;16.00;101659.00;;;;10025862;29;20264;-77
2022/05/27 06:41:40;;;;;;;22.57;12.73;;;;;17.50;101661.00;;;;10026059;29;20198;-77
2022/05/27 06:46:42;;;;;;;23.35;14.02;;;;;18.70;101648.00;;;;10039805;29;20212;-77
2022/05/27 06:51:44;;;;;;;27.77;11.57;;;;;19.90;101657.00;;;;10023629;29;20211;-77
2022/05/27 06:56:49;;;;;;;14.93;9.80;;;;;18.60;101668.00;;;;10028238;29;20226;-77
2022/05/27 07:01:51;;;;;;;19.15;9.65;;;;;17.80;101675.00;;;;10003892;29;20263;-77
2022/05/27 07:06:53;;;;;;;19.58;9.77;;;;;17.70;101674.00;;;;10038509;29;20300;-76
2022/05/27 07:11:58;;;;;;;15.48;9.25;;;;;18.60;101669.00;;;;10037144;29;20305;-77
2022/05/27 07:17:00;;;;;;;18.58;9.52;;;;;19.60;101662.00;;;;10048859;29;20200;-78
2022/05/27 07:22:11;;;;;;;13.32;7.00;;;;;20.40;101669.00;;;;9974452;29;20254;-76
2022/05/27 07:27:13;;;;;;;12.07;5.93;;;;;21.30;101681.00;;;;10015652;29;20213;-77
2022/05/27 07:32:14;;;;;;;12.35;5.53;;;;;20.50;101682.00;;;;10004337;29;20269;-79
2022/05/27 07:37:16;;;;;;;10.52;4.63;;;;;20.00;101678.00;;;;10014164;29;20685;-79
2022/05/27 07:42:18;;;;;;;14.95;5.03;;;;;20.40;101683.00;;;;10029806;29;20194;-77
2022/05/27 07:47:20;;;;;;;9.30;3.92;;;;;20.80;101677.00;;;;10040408;29;20209;-77
2022/05/27 07:52:22;;;;;;;7.45;3.95;;;;;20.00;101682.00;;;;10008476;29;20213;-77
2022/05/27 07:57:24;;;;;;;8.25;3.00;;;;;19.50;101677.00;;;;10027595;29;20197;-77
2022/05/27 08:02:26;;;;;;;12.63;3.50;;;;;19.00;101678.00;;;;10022587;29;20233;-77
2022/05/27 08:07:28;;;;;;;6.90;2.88;;;;;18.40;101692.00;;;;10023221;29;20197;-77
2022/05/27 08:12:31;;;;;;;3.97;2.75;;;;;17.90;101697.00;;;;10038551;29;20210;-76
2022/05/27 08:17:33;;;;;;;7.00;3.75;;;;;17.40;101693.00;;;;10028877;29;20243;-77
2022/05/27 08:22:35;;;;;;;6.00;2.88;;;;;18.90;101694.00;;;;10043248;29;20286;-76
2022/05/27 08:27:37;;;;;;;6.60;2.85;;;;;20.70;101701.00;;;;10029605;29;20201;-77
2022/05/27 08:32:39;;;;;;;3.00;2.55;;;;;20.20;101694.00;;;;10054627;29;20614;-77
2022/05/27 08:43:39;;;;;;;4.72;2.42;;;;;20.80;101691.00;;;;10000337;29;20199;-77
2022/05/27 08:48:45;;;;;;;4.05;2.00;;;;;19.30;101694.00;;;;10031213;29;20205;-77
2022/05/27 08:54:13;;;;;;;4.00;1.80;;;;;21.00;101682.00;;;;10031455;29;20205;-77
2022/05/27 08:59:37;;;;;;;3.95;2.10;;;;;22.40;101684.00;;;;10043697;29;20207;-77
2022/05/27 09:05:14;;;;;;;3.40;1.67;;;;;23.10;101677.00;;;;10030896;29;20224;-77
2022/05/27 09:10:23;;;;;;;3.78;1.88;;;;;23.70;101668.00;;;;10030729;29;20333;-77
2022/05/27 09:15:56;;;;;;;5.15;1.80;;;;;22.80;101681.00;;;;10046964;29;20193;-78
2022/05/27 09:21:23;;;;;;;3.95;1.80;;;;;21.40;101690.00;;;;10027906;29;20204;-77
2022/05/27 09:26:30;;;;;;;6.20;2.00;;;;;21.20;101670.00;;;;10029287;29;20201;-77
2022/05/27 09:31:40;;;;;;;7.68;1.95;;;;;22.30;101688.00;;;;10055401;29;20228;-77
2022/05/27 09:36:46;;;;;;;3.58;1.85;;;;;23.10;101689.00;;;;10013308;29;20553;-78
2022/05/27 09:42:07;;;;;;;4.07;1.50;;;;;23.10;101692.00;;;;10006305;29;20223;-78
2022/05/27 09:47:08;;;;;;;3.27;1.53;;;;;22.50;101682.00;;;;10043753;29;20838;-77
2022/05/27 09:52:11;;;;;;;3.42;1.50;;;;;23.20;101677.00;;;;10041084;29;20247;-78
2022/05/27 09:57:16;;;;;;;2.60;1.70;;;;;24.10;101690.00;;;;10042148;29;20685;-77
2022/05/27 10:02:20;;;;;;;2.72;1.67;;;;;24.20;101696.00;;;;10039007;29;20654;-77
2022/05/27 10:07:43;;;;;;;4.30;1.40;;;;;23.60;101698.00;;;;10025713;29;20197;-77
2022/05/27 10:12:45;;;;;;;5.88;1.90;;;;;24.60;101679.00;;;;10025221;29;20272;-78
2022/05/27 10:17:47;;;;;;;4.72;1.80;;;;;24.30;101693.00;;;;10073968;29;20200;-77
2022/05/27 10:23:08;;;;;;;5.25;2.28;;;;;21.50;101704.00;;;;10034041;29;20288;-77
2022/05/27 10:28:23;;;;;;;4.45;1.80;;;;;21.20;101700.00;;;;10026118;29;20304;-77
2022/05/27 10:33:40;;;;;;;4.55;1.95;;;;;23.70;101701.00;;;;10030931;29;20217;-77
2022/05/27 10:39:14;;;;;;;5.43;2.08;;;;;23.70;101710.00;;;;10038953;29;20209;-77
2022/05/27 10:44:48;;;;;;;4.38;2.08;;;;;21.60;101706.00;;;;10020768;29;20232;-77
2022/05/27 10:50:11;;;;;;;5.90;2.22;;;;;23.80;101683.00;;;;10006930;29;20204;-77
2022/05/27 10:55:42;;;;;;;2.65;1.38;;;;;24.90;101677.00;;;;10040195;29;20193;-77
2022/05/27 11:06:51;;;;;;;5.90;1.63;;;;;22.50;101701.00;;;;10025313;29;20215;-78
2022/05/27 11:12:15;;;;;;;4.50;1.77;;;;;24.30;101718.00;;;;10039659;29;20213;-77
2022/05/27 11:17:50;;;;;;;5.78;2.00;;;;;22.60;101725.00;;;;10038173;29;20199;-77
2022/05/27 11:23:05;;;;;;;5.38;2.05;;;;;23.80;101704.00;;;;10010172;29;20197;-77
2022/05/27 11:28:40;;;;;;;4.47;2.10;;;;;25.40;101694.00;;;;10004094;29;20577;-77
2022/05/27 11:33:53;;;;;;;5.90;1.90;;;;;26.30;101707.00;;;;10013814;29;20220;-76
2022/05/27 11:39:14;;;;;;;6.50;1.95;;;;;24.10;101716.00;;;;10009525;29;20261;-78
2022/05/27 11:44:32;;;;;;;4.85;2.25;;;;;25.00;101715.00;;;;10025582;29;20609;-77
2022/05/27 11:49:47;;;;;;;7.38;2.50;;;;;25.00;101722.00;;;;10044109;29;20434;-77
2022/05/27 11:55:14;;;;;;;8.45;2.38;;;;;24.50;101704.00;;;;10032361;29;20272;-77
2022/05/27 12:00:19;;;;;;;6.07;2.33;;;;;23.00;101703.00;;;;10046871;29;20185;-77
2022/05/27 12:05:33;;;;;;;7.68;2.80;;;;;24.00;101710.00;;;;10030084;29;20233;-77
2022/05/27 12:10:47;;;;;;;7.07;2.53;;;;;24.40;101699.00;;;;10030916;29;20209;-77
2022/05/27 12:15:54;;;;;;;10.40;2.72;;;;;24.90;101698.00;;;;10048771;29;20677;-77
2022/05/27 12:20:56;;;;;;;9.90;3.15;;;;;24.90;101721.00;;;;10069674;29;20196;-78
2022/05/27 12:26:00;;;;;;;5.28;2.55;;;;;24.30;101711.00;;;;10052821;29;20201;-76
2022/05/27 12:31:05;;;;;;;7.53;2.40;;;;;24.30;101706.00;;;;10050334;29;20704;-76
2022/05/27 12:36:27;;;;;;;9.65;3.40;;;;;24.30;101715.00;;;;10042873;29;20193;-77
2022/05/27 12:41:38;;;;;;;9.30;2.88;;;;;25.10;101713.00;;;;10021844;29;20205;-77
2022/05/27 12:46:43;;;;;;;6.95;2.50;;;;;25.60;101697.00;;;;10015996;29;20206;-78
2022/05/27 12:51:46;;;;;;;5.88;2.13;;;;;25.30;101702.00;;;;10034400;29;20800;-77
2022/05/27 13:02:14;;;;;;;9.88;2.97;;;;;25.50;101716.00;;;;10011198;29;20246;-76
2022/05/27 13:07:41;;;;;;;6.22;2.78;;;;;23.50;101711.00;;;;10015827;29;20655;-77
2022/05/27 13:12:49;;;;;;;6.65;2.40;;;;;22.10;101724.00;;;;10036427;29;20256;-77
2022/05/27 13:18:05;;;;;;;7.13;2.50;;;;;22.80;101698.00;;;;10051053;29;20201;-77
2022/05/27 13:23:15;;;;;;;8.40;2.53;;;;;22.10;101711.00;;;;10014948;29;20619;-77
2022/05/27 13:28:33;;;;;;;13.57;3.08;;;;;23.00;101701.00;;;;10057463;29;20200;-76
2022/05/27 13:33:50;;;;;;;7.10;2.75;;;;;23.30;101690.00;;;;10031113;29;20222;-78
2022/05/27 13:39:05;;;;;;;8.13;3.03;;;;;23.30;101697.00;;;;10030951;29;20215;-77
2022/05/27 13:44:11;;;;;;;9.65;2.55;;;;;23.60;101713.00;;;;10040118;29;20211;-77
2022/05/27 13:49:37;;;;;;;6.30;2.45;;;;;23.40;101717.00;;;;10020232;29;20204;-78
2022/05/27 13:54:39;;;;;;;7.90;2.42;;;;;22.10;101731.00;;;;10040127;29;20212;-78
2022/05/27 13:59:47;;;;;;;8.60;2.47;;;;;24.10;101718.00;;;;10031898;29;20207;-77
2022/05/27 14:04:57;;;;;;;10.13;2.83;;;;;26.00;101707.00;;;;10041298;29;20296;-78
2022/05/27 14:10:03;;;;;;;6.30;2.33;;;;;29.10;101711.00;;;;10039049;29;20557;-77
2022/05/27 14:15:12;;;;;;;7.57;2.50;;;;;29.90;101718.00;;;;10036381;29;20213;-77
2022/05/27 14:26:04;;;;;;;7.43;3.25;;;;;30.20;101718.00;;;;10059689;29;20254;-77
2022/05/27 14:31:19;;;;;;;12.25;2.25;;;;;28.00;101733.00;;;;10056278;29;20244;-78
2022/05/27 14:47:06;;;;;;;11.32;2.97;;;;;29.70;101719.00;;;;10564174;27;20648;-78
2022/05/27 14:52:29;;;;;;;13.93;2.85;;;;;30.60;101720.00;;;;10537035;28;20192;-77
2022/05/27 14:57:33;;;;;;;7.70;3.00;;;;;30.70;101728.00;;;;10517128;28;20195;-77
2022/05/27 15:02:38;;;;;;;6.72;2.90;;;;;30.80;101726.00;;;;10521745;28;20256;-77
2022/05/27 15:07:42;;;;;;;9.13;2.88;;;;;27.30;101744.00;;;;10438634;28;20224;-77
2022/05/27 15:12:44;;;;;;;11.98;3.25;;;;;25.80;101727.00;;;;10498954;28;20224;-77
2022/05/27 15:18:08;;;;;;;13.82;3.70;;;;;29.60;101733.00;;;;10479280;28;20196;-76
2022/05/27 15:23:10;;;;;;;9.82;2.88;;;;;29.80;101738.00;;;;10491717;28;20213;-77
2022/05/27 15:33:44;;;;;;;11.20;3.22;;;;;25.60;101730.00;;;;10479597;28;20220;-77
2022/05/27 15:38:48;;;;;;;9.20;3.40;;;;;22.70;101745.00;;;;10443712;28;20221;-78
2022/05/27 15:43:50;;;;;;;7.30;2.47;;;;;21.10;101742.00;;;;10515316;28;20307;-77
2022/05/27 15:48:53;;;;;;;8.27;2.50;;;;;20.10;101741.00;;;;10526215;28;20204;-76
2022/05/27 15:53:55;;;;;;;10.10;2.85;;;;;19.60;101766.00;;;;10468848;28;20177;-77
2022/05/27 15:58:57;;;;;;;10.07;2.95;;;;;19.20;101767.00;;;;10486517;28;20198;-77
2022/05/27 16:03:59;;;;;;;8.95;2.65;;;;;18.80;101763.00;;;;10470504;28;20220;-77
2022/05/27 16:09:02;;;;;;;9.32;2.28;;;;;18.80;101755.00;;;;10449143;28;20212;-78
2022/05/27 16:14:04;;;;;;;9.30;2.35;;;;;18.50;101761.00;;;;10445941;28;20217;-79
2022/05/27 16:19:07;;;;;;;6.25;2.03;;;;;18.30;101760.00;;;;10467148;28;20201;-78
2022/05/27 16:24:09;;;;;;;7.43;2.10;;;;;18.10;101752.00;;;;10455227;28;20210;-78
2022/05/27 16:29:17;;;;;;;8.80;2.40;;;;;18.10;101758.00;;;;10477675;28;20190;-79
2022/05/27 16:34:22;;;;;;;8.80;2.22;;;;;18.00;101761.00;;;;10427127;28;20190;-80
2022/05/27 16:39:24;;;;;;;5.65;2.10;;;;;18.00;101761.00;;;;10463388;28;20182;-78
2022/05/27 16:44:26;;;;;;;5.68;1.75;;;;;17.90;101767.00;;;;10448339;28;20232;-78
2022/05/27 16:49:29;;;;;;;10.23;2.47;;;;;17.90;101750.00;;;;10433724;28;20207;-79
2022/05/27 16:54:31;;;;;;;5.65;2.10;;;;;17.80;101768.00;;;;10463811;28;20182;-79
2022/05/27 16:59:34;;;;;;;7.10;2.35;;;;;17.70;101759.00;;;;10460035;28;20193;-79
2022/05/27 17:04:37;;;;;;;5.43;1.90;;;;;17.60;101767.00;;;;10458290;28;20218;-78
2022/05/27 17:09:39;;;;;;;6.95;1.67;;;;;17.50;101777.00;;;;10461225;28;20648;-79
2022/05/27 17:14:41;;;;;;;7.68;2.10;;;;;17.40;101769.00;;;;10441199;28;20193;-79
2022/05/27 17:19:43;;;;;;;5.00;1.63;;;;;17.40;101777.00;;;;10474751;28;20197;-78
2022/05/27 17:24:45;;;;;;;7.75;2.17;;;;;17.30;101777.00;;;;10448195;28;20220;-79
2022/05/27 17:29:48;;;;;;;6.72;1.65;;;;;17.20;101785.00;;;;10462073;28;20592;-79
2022/05/27 17:34:50;;;;;;;10.20;1.77;;;;;17.10;101777.00;;;;10436458;28;20244;-78
2022/05/27 17:39:52;;;;;;;9.82;2.30;;;;;17.00;101777.00;;;;10450979;28;20190;-79
2022/05/27 17:44:53;;;;;;;8.88;2.55;;;;;17.00;101785.00;;;;10440584;28;20213;-78
2022/05/27 17:55:16;;;;;;;6.47;1.90;;;;;17.00;101772.00;;;;10463764;28;20192;-78
2022/05/27 18:00:18;;;;;;;8.32;1.88;;;;;16.70;101784.00;;;;10446529;28;20186;-79
2022/05/27 18:05:21;;;;;;;9.18;2.03;;;;;16.60;101787.00;;;;10424674;28;20299;-77
2022/05/27 18:10:23;;;;;;;5.75;2.20;;;;;16.50;101801.00;;;;10468855;28;20680;-77
2022/05/27 18:15:25;;;;;;;8.35;2.63;;;;;16.50;101807.00;;;;10484300;28;20181;-78
2022/05/27 18:20:27;;;;;;;6.90;2.25;;;;;16.40;101805.00;;;;10391999;28;20197;-78
2022/05/27 18:25:29;;;;;;;8.90;2.07;;;;;16.30;101799.00;;;;10427305;28;20571;-78
2022/05/27 18:30:32;;;;;;;7.87;2.10;;;;;16.20;101811.00;;;;10442240;28;20654;-77
2022/05/27 18:35:34;;;;;;;10.97;2.60;;;;;16.10;101815.00;;;;10462574;28;20193;-78
2022/05/27 18:40:36;;;;;;;8.23;2.30;;;;;16.00;101821.00;;;;10475277;28;20200;-78
2022/05/27 18:45:38;;;;;;;9.87;2.47;;;;;16.00;101814.00;;;;10438858;28;20213;-78
2022/05/27 18:50:41;;;;;;;7.60;2.20;;;;;15.80;101819.00;;;;10445650;28;20268;-78
2022/05/27 18:55:45;;;;;;;7.83;2.30;;;;;15.70;101815.00;;;;10457682;28;20220;-78
2022/05/27 19:00:47;;;;;;;10.13;2.93;;;;;15.60;101818.00;;;;10460104;28;20198;-78
2022/05/27 19:05:50;;;;;;;10.40;2.60;;;;;15.40;101817.00;;;;10455255;28;20210;-78
2022/05/27 19:10:53;;;;;;;10.80;2.10;;;;;15.20;101820.00;;;;10463708;28;20698;-77
2022/05/27 19:16:09;;;;;;;5.53;2.17;;;;;15.00;101821.00;;;;10423881;28;20186;-78
2022/05/27 19:21:55;;;;;;;7.67;2.20;;;;;14.70;101816.00;;;;10442812;28;20194;-78
2022/05/27 19:27:44;;;;;;;7.20;1.73;;;;;14.40;101827.00;;;;10462726;28;20296;-78
2022/05/27 19:32:46;;;;;;;11.13;2.60;;;;;14.20;101827.00;;;;10445181;28;20196;-78
2022/05/27 19:37:48;;;;;;;7.57;2.33;;;;;14.00;101827.00;;;;10461029;28;20190;-78
2022/05/27 19:42:50;;;;;;;8.47;1.83;;;;;13.80;101834.00;;;;10428432;28;20218;-78
2022/05/27 19:47:52;;;;;;;9.23;2.50;;;;;13.70;101826.00;;;;10453616;28;20572;-78
2022/05/27 19:52:54;;;;;;;8.83;1.87;;;;;13.50;101832.00;;;;10466032;28;20277;-78
2022/05/27 20:08:57;;;;;;;6.20;2.40;;;;;13.00;101842.00;;;;10448492;28;20860;-77
2022/05/27 20:14:09;;;;;;;10.37;2.60;;;;;12.90;101842.00;;;;10465007;28;20186;-77
2022/05/27 20:19:19;;;;;;;6.80;2.10;;;;;12.70;101841.00;;;;10449467;28;20182;-78
2022/05/27 20:24:22;;;;;;;12.53;3.03;;;;;12.70;101841.00;;;;10465255;28;20197;-78
2022/05/27 20:29:23;;;;;;;8.47;2.63;;;;;12.80;101834.00;;;;10443182;28;20236;-78
2022/05/27 20:34:25;;;;;;;10.30;2.87;;;;;12.80;101837.00;;;;10434441;28;20190;-77
2022/05/27 20:39:32;;;;;;;8.77;2.30;;;;;12.90;101830.00;;;;10433143;28;20194;-78
2022/05/27 20:44:35;;;;;;;7.07;2.60;;;;;12.80;101837.00;;;;10454953;28;20816;-77
2022/05/27 20:49:37;;;;;;;6.87;2.37;;;;;12.80;101834.00;;;;10432937;28;20205;-78
2022/05/27 20:54:40;;;;;;;9.30;2.83;;;;;12.60;101839.00;;;;10442313;28;20243;-78
2022/05/27 20:59:42;;;;;;;9.43;2.17;;;;;12.40;101838.00;;;;10444013;28;20197;-78
2022/05/27 21:04:46;;;;;;;5.53;2.57;;;;;12.20;101829.00;;;;10447312;28;20244;-78
2022/05/27 21:09:48;;;;;;;8.17;2.57;;;;;12.00;101826.00;;;;10443216;28;20189;-78
2022/05/27 21:14:50;;;;;;;10.33;2.83;;;;;11.80;101825.00;;;;10440681;28;20181;-78
2022/05/27 21:19:54;;;;;;;7.50;2.00;;;;;11.70;101827.00;;;;10420777;28;20277;-77
2022/05/27 21:24:56;;;;;;;12.67;2.57;;;;;11.60;101834.00;;;;10459317;28;20631;-78
2022/05/27 21:29:59;;;;;;;7.60;2.40;;;;;11.50;101825.00;;;;10448261;28;20235;-78
2022/05/27 21:35:01;;;;;;;8.43;2.60;;;;;11.40;101826.00;;;;10441969;28;20220;-77
2022/05/27 21:40:03;;;;;;;11.13;3.57;;;;;11.20;101830.00;;;;10440170;28;20186;-77
2022/05/27 21:45:06;;;;;;;14.90;3.23;;;;;11.20;101837.00;;;;10475795;28;20699;-77
2022/05/27 21:50:10;;;;;;;9.10;3.00;;;;;11.10;101834.00;;;;10458256;28;20201;-77
2022/05/27 21:55:13;;;;;;;11.63;3.57;;;;;11.00;101840.00;;;;10436946;28;20212;-78
2022/05/27 22:00:17;;;;;;;9.13;3.00;;;;;11.00;101838.00;;;;10460897;28;20640;-77
2022/05/27 22:05:20;;;;;;;7.87;2.93;;;;;11.10;101835.00;;;;10435183;28;20246;-78
2022/05/27 22:15:48;;;;;;;8.60;2.90;;;;;11.40;101845.00;;;;10458117;28;20208;-78
2022/05/27 22:20:51;;;;;;;7.90;2.57;;;;;11.40;101830.00;;;;10424094;28;20192;-78
2022/05/27 22:25:53;;;;;;;8.90;2.83;;;;;11.50;101835.00;;;;10451527;28;20263;-78
2022/05/27 22:30:57;;;;;;;7.27;2.50;;;;;11.60;101829.00;;;;10423881;28;20202;-77
2022/05/27 22:36:11;;;;;;;10.63;3.97;;;;;11.70;101823.00;;;;10462232;28;20222;-78
2022/05/27 22:41:14;;;;;;;9.77;2.83;;;;;11.70;101822.00;;;;10485181;28;20186;-77
2022/05/27 22:46:16;;;;;;;12.03;3.17;;;;;11.60;101815.00;;;;10485232;28;20223;-77
2022/05/27 22:51:18;;;;;;;11.87;3.53;;;;;11.50;101811.00;;;;10476149;28;20610;-78
2022/05/27 22:56:20;;;;;;;14.87;3.37;;;;;11.40;101807.00;;;;10451714;28;20185;-78
2022/05/27 23:01:22;;;;;;;12.37;3.80;;;;;11.30;101814.00;;;;10473770;28;20716;-77
2022/05/27 23:06:24;;;;;;;14.17;4.00;;;;;11.30;101807.00;;;;10449558;28;20224;-77
2022/05/27 23:11:26;;;;;;;13.27;3.63;;;;;11.20;101801.00;;;;10463774;28;20711;-77
2022/05/27 23:21:49;;;;;;;12.93;3.47;;;;;11.30;101793.00;;;;10494914;28;20199;-77
2022/05/27 23:26:51;;;;;;;11.60;3.40;;;;;11.40;101794.00;;;;10478061;28;20576;-78
2022/05/27 23:31:53;;;;;;;12.73;3.17;;;;;11.50;101790.00;;;;10465617;28;20190;-77
2022/05/27 23:36:55;;;;;;;17.50;4.23;;;;;11.50;101777.00;;;;10448777;28;20647;-78
2022/05/27 23:41:57;;;;;;;10.87;3.27;;;;;11.60;101777.00;;;;10463273;28;20675;-78
2022/05/27 23:46:59;;;;;;;17.37;3.40;;;;;11.70;101777.00;;;;10455431;28;20201;-78
2022/05/27 23:52:01;;;;;;;13.50;3.23;;;;;11.70;101777.00;;;;10439473;28;20197;-77
2022/05/27 23:57:03;;;;;;;11.17;3.30;;;;;11.70;101763.00;;;;10469325;28;20285;-78
